Time;durP1;ratioP1;P1;durP2;ratioP2;P2;SDS_P1;SDS_P2;PMS_P1;PMS_P2;Temp;Humidity;BMP_temperature;BMP_pressure;BME280_temperature;BME280_humidity;BME280_pressure;Samples;Min_cycle;Max_cycle;Signal;HPM_P1;HPM_P2
2023/01/21 00:00:52;;;;;;;26.30;15.60;;;-1.40;99.90;;;;;;5053555;28;20194;-79
2023/01/21 00:03:18;;;;;;;30.30;15.27;;;-1.40;99.90;;;;;;5054622;28;20173;-78
2023/01/21 00:05:43;;;;;;;24.27;14.97;;;-1.40;99.90;;;;;;5054416;28;20705;-78
2023/01/21 00:08:09;;;;;;;30.50;17.10;;;-1.40;99.90;;;;;;5055013;28;20206;-78
2023/01/21 00:10:35;;;;;;;27.50;15.37;;;-1.40;99.90;;;;;;5053482;28;20179;-79
2023/01/21 00:13:00;;;;;;;31.43;16.70;;;-1.50;99.90;;;;;;5053178;28;20550;-78
2023/01/21 00:15:26;;;;;;;26.90;14.97;;;-1.50;99.90;;;;;;5054584;28;20268;-78
2023/01/21 00:17:53;;;;;;;24.73;14.97;;;-1.50;99.90;;;;;;5053247;28;20190;-78
2023/01/21 00:20:18;;;;;;;25.60;15.00;;;-1.50;99.90;;;;;;5054514;28;20209;-79
2023/01/21 00:22:44;;;;;;;27.10;15.93;;;-1.50;99.90;;;;;;5054409;28;20172;-78
2023/01/21 00:25:09;;;;;;;24.40;15.63;;;-1.60;99.90;;;;;;5053776;28;20217;-78
2023/01/21 00:27:35;;;;;;;26.80;15.63;;;-1.60;99.90;;;;;;5054760;28;20221;-78
2023/01/21 00:30:01;;;;;;;30.60;16.40;;;-1.60;99.90;;;;;;5054290;28;20173;-78
2023/01/21 00:32:26;;;;;;;26.73;15.27;;;-1.70;99.90;;;;;;5054201;28;20196;-78
2023/01/21 00:34:52;;;;;;;26.30;15.97;;;-1.70;99.90;;;;;;5054269;28;20212;-78
2023/01/21 00:37:17;;;;;;;28.87;16.60;;;-1.70;99.90;;;;;;5053022;28;20171;-78
2023/01/21 00:39:43;;;;;;;30.73;16.33;;;-1.70;99.90;;;;;;5053149;28;20172;-78
2023/01/21 00:42:10;;;;;;;24.40;14.93;;;-1.80;99.90;;;;;;5054279;28;20194;-78
2023/01/21 00:44:38;;;;;;;27.90;16.10;;;-1.70;99.90;;;;;;5054594;28;20638;-78
2023/01/21 00:47:04;;;;;;;23.83;15.27;;;-1.80;99.90;;;;;;5053037;28;20233;-79
2023/01/21 00:49:30;;;;;;;24.67;14.80;;;-1.80;99.90;;;;;;5054319;28;20256;-78
2023/01/21 00:51:56;;;;;;;28.23;16.10;;;-1.80;99.90;;;;;;5052719;28;20197;-78
2023/01/21 00:54:22;;;;;;;26.10;15.07;;;-1.80;99.90;;;;;;5054386;28;20170;-78
2023/01/21 00:56:48;;;;;;;28.77;15.70;;;-1.70;99.90;;;;;;5053365;28;20667;-78
2023/01/21 00:59:13;;;;;;;29.80;15.73;;;-1.70;99.90;;;;;;5053212;28;20204;-78
2023/01/21 01:01:39;;;;;;;30.03;17.50;;;-1.70;99.90;;;;;;5053406;28;20202;-78
2023/01/21 01:04:05;;;;;;;28.23;15.90;;;-1.70;99.90;;;;;;5052968;28;20179;-78
2023/01/21 01:06:31;;;;;;;27.50;15.40;;;-1.70;99.90;;;;;;5054290;28;20325;-78
2023/01/21 01:08:57;;;;;;;25.97;15.77;;;-1.70;99.90;;;;;;5053570;28;20755;-78
2023/01/21 01:11:25;;;;;;;26.53;15.73;;;-1.70;99.90;;;;;;5054495;28;20277;-79
2023/01/21 01:13:52;;;;;;;30.10;16.77;;;-1.70;99.90;;;;;;5054572;28;20180;-78
2023/01/21 01:16:17;;;;;;;28.30;16.70;;;-1.70;99.90;;;;;;5053582;28;20276;-79
2023/01/21 01:18:43;;;;;;;29.07;17.13;;;-1.70;99.90;;;;;;5054613;28;20178;-78
2023/01/21 01:21:12;;;;;;;32.20;17.87;;;-1.70;99.90;;;;;;5054462;28;20217;-78
2023/01/21 01:23:38;;;;;;;30.67;17.00;;;-1.80;99.90;;;;;;5054758;28;20174;-78
2023/01/21 01:26:06;;;;;;;25.90;15.83;;;-1.70;99.90;;;;;;5052991;28;20232;-78
2023/01/21 01:28:33;;;;;;;29.87;16.67;;;-1.80;99.90;;;;;;5054407;28;20209;-78
2023/01/21 01:30:59;;;;;;;32.63;17.53;;;-1.80;99.90;;;;;;5052975;28;20287;-79
2023/01/21 01:33:25;;;;;;;29.10;16.60;;;-1.80;99.90;;;;;;5052851;28;20174;-78
2023/01/21 01:35:52;;;;;;;32.83;17.93;;;-1.80;99.90;;;;;;5057029;28;20266;-79
2023/01/21 01:38:20;;;;;;;27.07;16.70;;;-1.80;99.90;;;;;;5058292;28;20214;-79
2023/01/21 01:40:47;;;;;;;33.83;17.27;;;-1.80;99.90;;;;;;5056901;28;20207;-78
2023/01/21 01:43:19;;;;;;;33.90;17.80;;;-1.70;99.90;;;;;;5057705;28;20185;-78
2023/01/21 01:45:47;;;;;;;30.97;16.20;;;-1.80;99.90;;;;;;5057510;28;20185;-79
2023/01/21 01:48:18;;;;;;;26.40;16.47;;;-1.80;99.90;;;;;;5056382;28;20205;-78
2023/01/21 01:50:45;;;;;;;29.77;16.30;;;-1.80;99.90;;;;;;5057668;28;20194;-78
2023/01/21 01:53:12;;;;;;;28.70;15.77;;;-1.80;99.90;;;;;;5057653;28;20626;-79
2023/01/21 01:55:39;;;;;;;28.97;16.30;;;-1.90;99.90;;;;;;5056767;28;20186;-79
2023/01/21 01:58:09;;;;;;;30.20;16.27;;;-1.90;99.90;;;;;;5057597;28;20634;-78
2023/01/21 02:00:35;;;;;;;27.77;16.47;;;-1.90;99.90;;;;;;5056310;28;20235;-79
2023/01/21 02:05:46;;;;;;;25.97;15.77;;;-1.90;99.90;;;;;;5057869;28;20172;-79
2023/01/21 02:08:12;;;;;;;29.50;16.00;;;-1.90;99.90;;;;;;5056437;28;20217;-78
2023/01/21 02:10:38;;;;;;;29.60;16.90;;;-1.90;99.90;;;;;;5056157;28;20235;-79
2023/01/21 02:13:04;;;;;;;28.97;16.60;;;-1.90;99.90;;;;;;5057290;28;20181;-79
2023/01/21 02:15:45;;;;;;;34.33;17.33;;;-1.90;99.90;;;;;;5057244;28;20205;-79
2023/01/21 02:18:36;;;;;;;27.40;16.30;;;-2.00;99.90;;;;;;5058014;28;20186;-79
2023/01/21 02:21:38;;;;;;;26.70;15.57;;;-2.00;99.90;;;;;;5057044;28;20277;-78
2023/01/21 02:24:48;;;;;;;28.20;16.97;;;-1.90;99.90;;;;;;5057511;28;20256;-79
2023/01/21 02:27:22;;;;;;;28.73;17.17;;;-2.00;99.90;;;;;;5055989;28;20266;-79
2023/01/21 02:30:12;;;;;;;30.20;17.73;;;-2.00;99.90;;;;;;5056041;28;20206;-78
2023/01/21 02:32:59;;;;;;;26.13;16.07;;;-1.90;99.90;;;;;;5056166;28;20293;-79
2023/01/21 02:35:42;;;;;;;31.27;16.93;;;-2.00;99.90;;;;;;5056317;28;20547;-78
2023/01/21 02:38:33;;;;;;;26.27;16.17;;;-2.00;99.90;;;;;;5056318;28;20225;-78
2023/01/21 02:41:27;;;;;;;28.83;16.13;;;-2.00;99.90;;;;;;5057496;28;20229;-79
2023/01/21 02:44:25;;;;;;;30.37;16.67;;;-2.00;99.90;;;;;;5053704;28;20202;-79
2023/01/21 02:47:15;;;;;;;28.07;16.03;;;-2.00;99.90;;;;;;5047028;28;20221;-80
2023/01/21 02:49:53;;;;;;;32.67;17.73;;;-2.00;99.90;;;;;;5054716;28;20228;-79
2023/01/21 02:52:21;;;;;;;26.53;16.07;;;-2.00;99.90;;;;;;5054759;28;20223;-78
2023/01/21 02:54:58;;;;;;;27.83;16.37;;;-2.10;99.90;;;;;;5056818;28;20268;-79
2023/01/21 02:57:34;;;;;;;35.57;17.27;;;-2.10;99.90;;;;;;5056518;28;20236;-79
2023/01/21 03:00:05;;;;;;;30.83;16.53;;;-2.10;99.90;;;;;;5055554;28;20180;-78
2023/01/21 03:02:48;;;;;;;28.87;17.50;;;-2.10;99.90;;;;;;5055752;28;20202;-78
2023/01/21 03:05:37;;;;;;;29.77;16.30;;;-2.10;99.90;;;;;;5055636;28;20175;-78
2023/01/21 03:08:17;;;;;;;27.20;15.50;;;-2.20;99.90;;;;;;5056761;28;20565;-79
2023/01/21 03:10:54;;;;;;;28.80;15.70;;;-2.20;99.90;;;;;;5056605;28;20656;-79
2023/01/21 03:19:08;;;;;;;27.03;16.67;;;-2.20;99.90;;;;;;5056556;28;20190;-79
2023/01/21 03:21:35;;;;;;;27.87;16.70;;;-2.30;99.90;;;;;;5054598;28;20217;-79
2023/01/21 03:24:01;;;;;;;31.73;15.83;;;-2.30;99.90;;;;;;5056402;28;20630;-79
2023/01/21 03:26:43;;;;;;;28.27;16.93;;;-2.30;99.90;;;;;;5056019;28;20212;-79
2023/01/21 03:29:20;;;;;;;32.13;16.43;;;-2.30;99.90;;;;;;5056045;28;20195;-79
2023/01/21 03:31:50;;;;;;;29.07;15.77;;;-2.30;99.90;;;;;;5056231;28;20290;-78
2023/01/21 03:34:18;;;;;;;27.70;15.70;;;-2.30;99.90;;;;;;5056290;28;20613;-79
2023/01/21 03:36:49;;;;;;;28.27;16.70;;;-2.30;99.90;;;;;;5055962;28;20269;-79
2023/01/21 03:39:22;;;;;;;35.63;17.67;;;-2.40;99.90;;;;;;5055849;28;20246;-79
2023/01/21 03:41:48;;;;;;;27.07;15.70;;;-2.40;99.90;;;;;;5054524;28;20197;-79
2023/01/21 03:44:14;;;;;;;29.10;16.97;;;-2.40;99.90;;;;;;5054535;28;20181;-79
2023/01/21 03:47:00;;;;;;;38.43;17.77;;;-2.40;99.90;;;;;;5055757;28;20178;-79
2023/01/21 03:49:53;;;;;;;27.60;16.10;;;-2.40;99.90;;;;;;5054360;28;20231;-79
2023/01/21 03:52:21;;;;;;;22.97;15.27;;;-2.40;99.90;;;;;;5048255;28;20210;-79
2023/01/21 03:54:48;;;;;;;28.50;14.97;;;-2.30;99.90;;;;;;5055841;28;20207;-79
2023/01/21 03:57:13;;;;;;;26.30;15.37;;;-2.40;99.90;;;;;;5056219;28;20170;-79
2023/01/21 03:59:39;;;;;;;26.37;14.90;;;-2.40;99.90;;;;;;5053797;28;20278;-78
2023/01/21 04:02:04;;;;;;;29.83;16.10;;;-2.40;99.90;;;;;;5054352;28;20196;-78
2023/01/21 04:04:30;;;;;;;29.87;15.63;;;-2.40;99.90;;;;;;5056123;28;20173;-79
2023/01/21 04:06:55;;;;;;;32.50;16.47;;;-2.40;99.90;;;;;;5054255;28;20524;-79
2023/01/21 04:09:21;;;;;;;29.20;17.23;;;-2.40;99.90;;;;;;5055565;28;20674;-79
2023/01/21 04:11:46;;;;;;;25.27;15.07;;;-2.40;99.90;;;;;;5055304;28;20198;-78
2023/01/21 04:14:12;;;;;;;27.20;15.70;;;-2.40;99.90;;;;;;5054342;28;20220;-79
2023/01/21 04:16:37;;;;;;;27.70;15.27;;;-2.50;99.90;;;;;;5055292;28;20171;-79
2023/01/21 04:19:03;;;;;;;31.47;15.37;;;-2.40;99.90;;;;;;5054158;28;20182;-79
2023/01/21 04:21:29;;;;;;;28.80;16.40;;;-2.40;99.90;;;;;;5054952;28;20300;-79
2023/01/21 04:23:55;;;;;;;25.87;14.73;;;-2.50;99.90;;;;;;5055502;28;20277;-79
2023/01/21 04:26:20;;;;;;;31.40;17.90;;;-2.40;99.90;;;;;;5055411;28;20178;-79
2023/01/21 04:28:46;;;;;;;31.23;17.30;;;-2.40;99.90;;;;;;5054950;28;20194;-78
2023/01/21 04:31:11;;;;;;;29.33;15.90;;;-2.40;99.90;;;;;;5055153;28;20699;-79
2023/01/21 04:33:37;;;;;;;33.97;16.93;;;-2.40;99.90;;;;;;5055074;28;20182;-79
2023/01/21 04:36:03;;;;;;;25.30;16.00;;;-2.40;99.90;;;;;;5054828;28;20181;-78
2023/01/21 04:38:29;;;;;;;30.00;18.10;;;-2.40;99.90;;;;;;5053671;28;20217;-79
2023/01/21 04:40:54;;;;;;;31.07;16.90;;;-2.40;99.90;;;;;;5054805;28;20284;-79
2023/01/21 04:43:20;;;;;;;32.37;17.90;;;-2.40;99.90;;;;;;5053643;28;20185;-79
2023/01/21 04:45:46;;;;;;;27.20;16.80;;;-2.40;99.90;;;;;;5053656;28;20701;-79
2023/01/21 04:48:11;;;;;;;33.43;17.00;;;-2.50;99.90;;;;;;5054627;28;20220;-79
2023/01/21 04:50:37;;;;;;;32.57;17.70;;;-2.50;99.90;;;;;;5053721;28;20272;-79
2023/01/21 04:53:03;;;;;;;26.80;15.50;;;-2.50;99.90;;;;;;5055404;28;20225;-79
2023/01/21 04:55:28;;;;;;;29.60;16.57;;;-2.40;99.90;;;;;;5054679;28;20215;-78
2023/01/21 04:57:54;;;;;;;29.33;16.80;;;-2.40;99.90;;;;;;5053737;28;20189;-78
2023/01/21 05:00:20;;;;;;;32.30;17.40;;;-2.50;99.90;;;;;;5054431;28;20200;-79
2023/01/21 05:02:45;;;;;;;31.23;16.87;;;-2.50;99.90;;;;;;5054792;28;20265;-79
2023/01/21 05:05:11;;;;;;;27.57;16.33;;;-2.50;99.90;;;;;;5054673;28;20207;-78
2023/01/21 05:07:36;;;;;;;31.23;16.90;;;-2.50;99.90;;;;;;5053264;28;20261;-78
2023/01/21 05:10:03;;;;;;;32.33;17.73;;;-2.50;99.90;;;;;;5055179;28;20176;-78
2023/01/21 05:12:28;;;;;;;32.50;16.50;;;-2.50;99.90;;;;;;5057135;28;20191;-78
2023/01/21 05:14:56;;;;;;;34.17;17.90;;;-2.50;99.90;;;;;;5058608;28;20178;-78
2023/01/21 05:17:22;;;;;;;30.77;17.33;;;-2.50;99.90;;;;;;5058882;28;20542;-79
2023/01/21 05:19:49;;;;;;;31.30;16.17;;;-2.60;99.90;;;;;;5058670;28;20181;-79
2023/01/21 05:22:15;;;;;;;29.60;16.10;;;-2.60;99.90;;;;;;5056918;28;20584;-78
2023/01/21 05:24:40;;;;;;;28.70;16.60;;;-2.60;99.90;;;;;;5057011;28;20178;-79
2023/01/21 05:27:06;;;;;;;28.27;17.00;;;-2.60;99.90;;;;;;5058241;28;20174;-78
2023/01/21 05:29:32;;;;;;;29.33;16.60;;;-2.60;99.90;;;;;;5057088;28;20203;-78
2023/01/21 05:31:57;;;;;;;28.77;16.50;;;-2.70;99.90;;;;;;5056450;28;20193;-79
2023/01/21 05:34:22;;;;;;;28.00;17.17;;;-2.70;99.90;;;;;;5057859;28;20176;-78
2023/01/21 05:36:48;;;;;;;30.43;16.67;;;-2.60;99.90;;;;;;5057925;28;20174;-79
2023/01/21 05:39:14;;;;;;;33.40;17.47;;;-2.70;99.90;;;;;;5057555;28;20179;-79
2023/01/21 05:41:39;;;;;;;32.73;17.73;;;-2.70;99.90;;;;;;5056575;28;20258;-78
2023/01/21 05:44:06;;;;;;;28.17;16.47;;;-2.80;99.90;;;;;;5057625;28;20195;-78
2023/01/21 05:46:32;;;;;;;32.13;17.57;;;-2.70;99.90;;;;;;5056281;28;20182;-78
2023/01/21 05:48:57;;;;;;;31.57;17.20;;;-2.80;99.90;;;;;;5056743;28;20200;-77
2023/01/21 05:51:23;;;;;;;34.20;19.17;;;-2.70;99.90;;;;;;5056386;28;20611;-77
2023/01/21 05:53:48;;;;;;;35.90;17.80;;;-2.80;99.90;;;;;;5056099;28;20173;-78
2023/01/21 05:56:14;;;;;;;27.70;16.23;;;-2.80;99.90;;;;;;5056130;28;20178;-77
2023/01/21 05:58:39;;;;;;;29.07;17.37;;;-2.80;99.90;;;;;;5054749;28;20182;-77
2023/01/21 06:01:05;;;;;;;32.73;16.60;;;-2.80;99.90;;;;;;5056374;28;20198;-77
2023/01/21 06:03:30;;;;;;;28.47;16.70;;;-2.70;99.90;;;;;;5055697;28;20222;-77
2023/01/21 06:05:56;;;;;;;31.77;17.63;;;-2.70;99.90;;;;;;5054754;28;20197;-77
2023/01/21 06:08:22;;;;;;;33.67;18.07;;;-2.70;99.90;;;;;;5054468;28;20625;-78
2023/01/21 06:10:47;;;;;;;32.77;17.90;;;-2.70;99.90;;;;;;5054872;28;20198;-78
2023/01/21 06:13:14;;;;;;;33.73;18.60;;;-2.70;99.90;;;;;;5054629;28;20668;-77
2023/01/21 06:15:40;;;;;;;29.73;16.77;;;-2.70;99.90;;;;;;5056034;28;20180;-77
2023/01/21 06:18:06;;;;;;;34.70;17.13;;;-2.80;99.90;;;;;;5055603;28;20186;-77
2023/01/21 06:20:32;;;;;;;31.80;17.13;;;-2.80;99.90;;;;;;5055508;28;20195;-77
2023/01/21 06:22:57;;;;;;;30.67;16.93;;;-2.80;99.90;;;;;;5053355;28;20624;-78
2023/01/21 06:25:24;;;;;;;29.40;17.03;;;-2.80;99.90;;;;;;5055800;28;20176;-77
2023/01/21 06:27:50;;;;;;;32.27;17.37;;;-2.70;99.90;;;;;;5054070;28;20173;-79
2023/01/21 06:30:16;;;;;;;31.37;17.23;;;-2.90;99.90;;;;;;5054132;28;20641;-76
2023/01/21 06:32:41;;;;;;;28.97;16.47;;;-2.90;99.90;;;;;;5053834;28;20224;-77
2023/01/21 06:35:07;;;;;;;32.17;16.80;;;-2.90;99.90;;;;;;5055355;28;20249;-77
2023/01/21 06:37:33;;;;;;;27.63;16.73;;;-2.90;99.90;;;;;;5055301;28;20216;-77
2023/01/21 06:39:58;;;;;;;33.90;17.47;;;-2.90;99.90;;;;;;5055268;28;20591;-76
2023/01/21 06:42:24;;;;;;;32.87;17.43;;;-2.90;99.90;;;;;;5053850;28;20191;-77
2023/01/21 06:44:49;;;;;;;28.23;16.47;;;-2.90;99.90;;;;;;5055080;28;20175;-77
2023/01/21 06:47:15;;;;;;;39.03;17.30;;;-2.90;99.90;;;;;;5054976;28;20173;-75
2023/01/21 06:49:40;;;;;;;27.33;16.00;;;-2.90;99.90;;;;;;5055173;28;20201;-76
2023/01/21 06:52:06;;;;;;;31.37;17.77;;;-2.90;99.90;;;;;;5054933;28;20229;-76
2023/01/21 06:54:32;;;;;;;32.63;18.53;;;-2.80;99.90;;;;;;5054976;28;20170;-76
2023/01/21 06:56:57;;;;;;;33.03;17.67;;;-2.80;99.90;;;;;;5054767;28;20641;-76
2023/01/21 06:59:23;;;;;;;29.67;17.07;;;-2.80;99.90;;;;;;5053219;28;20638;-76
2023/01/21 07:01:48;;;;;;;32.43;18.13;;;-2.80;99.90;;;;;;5054689;28;20603;-76
2023/01/21 07:04:14;;;;;;;30.27;17.87;;;-2.90;99.90;;;;;;5053187;28;20181;-76
2023/01/21 07:06:40;;;;;;;34.13;18.37;;;-2.90;99.90;;;;;;5053176;28;20735;-76
2023/01/21 07:09:06;;;;;;;31.73;18.17;;;-2.90;99.90;;;;;;5053244;28;20224;-77
2023/01/21 07:11:32;;;;;;;32.10;17.03;;;-2.90;99.90;;;;;;5053274;28;20197;-76
2023/01/21 07:13:57;;;;;;;32.93;17.83;;;-2.80;99.90;;;;;;5054644;28;20181;-77
2023/01/21 07:16:23;;;;;;;29.80;17.70;;;-2.90;99.90;;;;;;5054463;28;20164;-77
2023/01/21 07:18:49;;;;;;;31.07;17.90;;;-2.90;99.90;;;;;;5054269;28;20178;-76
2023/01/21 07:21:15;;;;;;;32.53;18.80;;;-3.00;99.90;;;;;;5052753;28;20210;-76
2023/01/21 07:23:40;;;;;;;30.03;17.37;;;-2.90;99.90;;;;;;5054129;28;20170;-76
2023/01/21 07:26:06;;;;;;;34.10;17.17;;;-3.00;99.90;;;;;;5054163;28;20172;-76
2023/01/21 07:28:32;;;;;;;30.63;16.60;;;-3.00;99.90;;;;;;5052630;28;20208;-76
2023/01/21 07:30:59;;;;;;;30.50;16.23;;;-3.00;99.90;;;;;;5053920;28;20286;-76
2023/01/21 07:33:24;;;;;;;31.13;16.17;;;-2.90;99.90;;;;;;5053771;28;20178;-78
2023/01/21 07:35:50;;;;;;;31.47;17.97;;;-3.00;99.90;;;;;;5052499;28;20225;-76
2023/01/21 07:38:16;;;;;;;28.63;17.00;;;-3.00;99.90;;;;;;5052509;28;20175;-77
2023/01/21 07:40:41;;;;;;;32.57;16.90;;;-3.00;99.90;;;;;;5053787;28;20262;-75
2023/01/21 07:43:08;;;;;;;33.63;17.70;;;-3.00;99.90;;;;;;5052484;28;20173;-75
2023/01/21 07:45:34;;;;;;;29.03;15.93;;;-3.00;99.90;;;;;;5052634;28;20191;-76
2023/01/21 07:47:59;;;;;;;28.27;16.20;;;-3.00;99.90;;;;;;5052454;28;20701;-76
2023/01/21 07:50:25;;;;;;;31.53;16.70;;;-3.00;99.90;;;;;;5052494;28;20172;-77
2023/01/21 07:52:54;;;;;;;30.00;15.97;;;-3.00;99.90;;;;;;5052339;28;20668;-75
2023/01/21 07:55:20;;;;;;;32.53;16.97;;;-3.00;99.90;;;;;;5052231;28;20181;-75
2023/01/21 07:57:45;;;;;;;35.20;17.70;;;-2.90;99.90;;;;;;5043141;28;20196;-74
2023/01/21 08:00:12;;;;;;;32.63;18.23;;;-3.00;99.90;;;;;;5053769;28;20203;-75
2023/01/21 08:02:38;;;;;;;28.07;15.73;;;-2.90;99.90;;;;;;5053500;28;20184;-76
2023/01/21 08:05:05;;;;;;;29.37;16.33;;;-2.90;99.90;;;;;;5053751;28;20178;-76
2023/01/21 08:07:30;;;;;;;33.73;18.03;;;-2.90;99.90;;;;;;5053678;28;20164;-77
2023/01/21 08:09:56;;;;;;;37.03;18.37;;;-2.90;99.90;;;;;;5052221;28;20302;-76
2023/01/21 08:12:21;;;;;;;31.93;16.57;;;-2.90;99.90;;;;;;5053489;28;20826;-74
2023/01/21 08:14:47;;;;;;;37.93;18.50;;;-2.90;99.90;;;;;;5053509;28;20176;-74
2023/01/21 08:17:12;;;;;;;37.37;18.70;;;-2.80;99.90;;;;;;5053552;28;20174;-74
2023/01/21 08:19:38;;;;;;;37.93;19.10;;;-2.80;99.90;;;;;;5053105;28;20527;-74
2023/01/21 08:22:03;;;;;;;34.93;18.17;;;-2.70;99.90;;;;;;5053088;28;20650;-74
2023/01/21 08:24:29;;;;;;;43.23;20.27;;;-2.70;99.90;;;;;;5053097;28;20224;-73
2023/01/21 08:26:59;;;;;;;41.40;18.77;;;-2.70;99.90;;;;;;5051634;28;20264;-74
2023/01/21 08:29:25;;;;;;;34.10;18.43;;;-2.60;99.90;;;;;;5053304;28;20197;-73
2023/01/21 08:31:51;;;;;;;37.87;19.93;;;-2.60;99.90;;;;;;5052908;28;20251;-74
2023/01/21 08:34:17;;;;;;;39.30;20.13;;;-2.50;99.90;;;;;;5053332;28;20510;-75
2023/01/21 08:36:43;;;;;;;42.17;20.07;;;-2.40;99.90;;;;;;5053314;28;20175;-76
2023/01/21 08:39:11;;;;;;;40.67;20.37;;;-2.30;99.90;;;;;;5053871;28;20715;-75
2023/01/21 08:41:36;;;;;;;50.40;23.57;;;-2.20;99.90;;;;;;5051836;28;20193;-75
2023/01/21 08:44:02;;;;;;;46.33;22.03;;;-2.20;99.90;;;;;;5053390;28;20185;-76
2023/01/21 08:46:27;;;;;;;43.33;22.30;;;-2.00;99.90;;;;;;5052832;28;20175;-75
2023/01/21 08:48:53;;;;;;;51.70;22.93;;;-2.00;99.90;;;;;;5051943;28;20206;-75
2023/01/21 08:51:18;;;;;;;48.43;23.10;;;-1.90;99.90;;;;;;5051685;28;20197;-75
2023/01/21 08:53:46;;;;;;;47.57;23.97;;;-1.80;99.90;;;;;;5052103;28;20174;-75
2023/01/21 08:56:12;;;;;;;45.63;23.47;;;-1.80;99.90;;;;;;5052319;28;20178;-75
2023/01/21 08:58:37;;;;;;;45.17;22.97;;;-1.70;99.90;;;;;;5052230;28;20184;-75
2023/01/21 09:01:08;;;;;;;44.97;22.13;;;-1.60;99.90;;;;;;5053099;28;20201;-75
2023/01/21 09:03:34;;;;;;;48.80;22.70;;;-1.60;99.90;;;;;;5051813;28;20183;-75
2023/01/21 09:06:01;;;;;;;47.80;22.70;;;-1.50;99.90;;;;;;5051988;28;20173;-77
2023/01/21 09:08:26;;;;;;;48.67;24.20;;;-1.40;99.90;;;;;;5053342;28;20197;-77
2023/01/21 09:11:02;;;;;;;51.00;23.43;;;-1.40;99.90;;;;;;5051412;28;20685;-76
2023/01/21 09:13:36;;;;;;;56.10;25.23;;;-1.30;99.90;;;;;;5051969;28;20169;-77
2023/01/21 09:16:06;;;;;;;47.50;22.70;;;-1.30;99.90;;;;;;5051619;28;20181;-77
2023/01/21 09:18:32;;;;;;;49.53;23.80;;;-1.30;99.90;;;;;;5051613;28;20192;-77
2023/01/21 09:21:02;;;;;;;49.67;24.20;;;-1.20;99.90;;;;;;5051202;28;20218;-77
2023/01/21 09:23:31;;;;;;;49.07;23.60;;;-1.20;99.90;;;;;;5053138;28;20667;-78
2023/01/21 09:26:17;;;;;;;48.80;24.93;;;-1.10;99.90;;;;;;5053045;28;20668;-76
2023/01/21 09:28:45;;;;;;;54.10;26.17;;;-1.10;99.90;;;;;;5052945;28;20290;-74
2023/01/21 09:31:17;;;;;;;47.80;24.90;;;-1.00;99.90;;;;;;5052932;28;20189;-74
2023/01/21 09:33:46;;;;;;;47.37;24.33;;;-1.00;99.90;;;;;;5052786;28;20151;-74
2023/01/21 09:36:15;;;;;;;50.43;24.37;;;-0.90;99.90;;;;;;5051296;28;20194;-74
2023/01/21 09:38:42;;;;;;;48.13;24.17;;;-0.90;99.90;;;;;;5051462;28;20182;-76
2023/01/21 09:41:25;;;;;;;52.17;24.60;;;-0.80;99.90;;;;;;5051321;28;20245;-74
2023/01/21 09:43:59;;;;;;;48.03;22.83;;;-0.80;99.90;;;;;;5052531;28;20680;-73
2023/01/21 09:47:04;;;;;;;48.23;22.03;;;-0.80;99.90;;;;;;5051572;28;20603;-74
2023/01/21 09:49:42;;;;;;;44.67;22.10;;;-0.80;99.90;;;;;;5052219;28;20267;-74
2023/01/21 09:52:21;;;;;;;52.00;22.80;;;-0.70;99.90;;;;;;5052216;28;20195;-73
2023/01/21 09:54:47;;;;;;;50.47;23.77;;;-0.70;99.90;;;;;;5051241;28;20177;-76
2023/01/21 09:57:15;;;;;;;46.67;23.17;;;-0.60;99.90;;;;;;5053818;28;20169;-76
2023/01/21 10:00:15;;;;;;;53.93;23.57;;;-0.60;99.90;;;;;;5054689;28;20175;-76
2023/01/21 10:02:59;;;;;;;48.63;23.23;;;-0.60;99.90;;;;;;5055771;28;20224;-76
2023/01/21 10:05:51;;;;;;;46.73;22.37;;;-0.50;99.90;;;;;;5054491;28;20198;-76
2023/01/21 10:08:28;;;;;;;60.43;23.43;;;-0.50;99.90;;;;;;5054608;28;20198;-76
2023/01/21 10:11:20;;;;;;;43.97;22.60;;;-0.50;99.90;;;;;;5056210;28;20210;-76
2023/01/21 10:14:20;;;;;;;44.77;23.00;;;-0.50;99.90;;;;;;5055842;28;20163;-76
2023/01/21 10:17:11;;;;;;;51.10;22.53;;;-0.40;99.90;;;;;;5054382;28;20557;-77
2023/01/21 10:19:51;;;;;;;43.93;23.10;;;-0.40;99.90;;;;;;5055566;28;20213;-77
2023/01/21 10:22:22;;;;;;;46.93;21.47;;;-0.30;99.90;;;;;;5055417;28;20210;-76
2023/01/21 10:25:02;;;;;;;47.97;23.10;;;-0.30;99.90;;;;;;5055427;28;20166;-76
2023/01/21 10:27:34;;;;;;;46.40;21.67;;;-0.20;99.90;;;;;;5055816;28;20508;-76
2023/01/21 10:30:20;;;;;;;47.77;22.33;;;-0.20;99.90;;;;;;5055717;28;20241;-77
2023/01/21 10:32:49;;;;;;;47.03;23.33;;;-0.10;99.90;;;;;;5055306;28;20159;-76
2023/01/21 10:35:19;;;;;;;51.77;23.13;;;-0.10;99.90;;;;;;5055359;28;20171;-76
2023/01/21 10:38:18;;;;;;;47.37;23.23;;;0.00;99.90;;;;;;5055203;28;20174;-76
2023/01/21 10:40:56;;;;;;;46.00;24.20;;;0.00;99.90;;;;;;5001887;28;20208;-77
2023/01/21 10:44:00;;;;;;;45.10;22.53;;;0.00;99.90;;;;;;5055754;28;20240;-76
2023/01/21 10:46:36;;;;;;;46.30;22.67;;;0.10;99.90;;;;;;5055109;28;20162;-77
2023/01/21 10:49:08;;;;;;;46.97;24.00;;;0.10;99.90;;;;;;5055021;28;20738;-77
2023/01/21 10:51:45;;;;;;;43.20;21.97;;;0.20;99.90;;;;;;5055028;28;20191;-76
2023/01/21 10:54:24;;;;;;;52.67;24.70;;;0.20;99.90;;;;;;5055012;28;20163;-77
2023/01/21 10:57:01;;;;;;;45.17;22.77;;;0.30;99.90;;;;;;5053533;28;20174;-77
2023/01/21 10:59:31;;;;;;;43.00;22.17;;;0.30;99.90;;;;;;5053507;28;20224;-77
2023/01/21 11:02:09;;;;;;;47.00;21.87;;;0.30;99.90;;;;;;5054585;28;20203;-76
2023/01/21 11:04:40;;;;;;;45.30;23.67;;;0.40;99.90;;;;;;5054729;28;20182;-76
2023/01/21 11:07:09;;;;;;;48.57;22.93;;;0.40;99.90;;;;;;5054879;28;20639;-77
2023/01/21 11:09:38;;;;;;;46.07;23.27;;;0.40;99.90;;;;;;5054334;28;20293;-76
2023/01/21 11:12:04;;;;;;;52.20;24.37;;;0.50;99.90;;;;;;5054350;28;20187;-77
2023/01/21 11:14:30;;;;;;;49.63;24.67;;;0.50;99.90;;;;;;5054489;28;20186;-77
2023/01/21 11:16:56;;;;;;;46.87;23.37;;;0.50;99.90;;;;;;5054456;28;20168;-77
2023/01/21 11:19:30;;;;;;;48.83;22.57;;;0.50;99.90;;;;;;5054246;28;20269;-77
2023/01/21 11:22:27;;;;;;;47.87;22.97;;;0.60;99.90;;;;;;5053972;28;20570;-76
2023/01/21 11:24:53;;;;;;;44.80;22.50;;;0.60;99.90;;;;;;5046109;28;20658;-77
2023/01/21 11:27:20;;;;;;;45.73;22.13;;;0.60;99.90;;;;;;5054106;28;20175;-76
2023/01/21 11:29:47;;;;;;;48.80;23.60;;;0.60;99.90;;;;;;5053904;28;20195;-76
2023/01/21 11:32:20;;;;;;;43.73;21.63;;;0.70;99.90;;;;;;5053938;28;20191;-77
2023/01/21 11:34:49;;;;;;;45.23;22.23;;;0.70;99.90;;;;;;5052662;28;20166;-76
2023/01/21 11:37:24;;;;;;;46.60;21.37;;;0.70;99.90;;;;;;5052683;28;20175;-77
2023/01/21 11:40:23;;;;;;;49.27;22.93;;;0.80;99.90;;;;;;5052632;28;20262;-77
2023/01/21 11:42:51;;;;;;;54.63;23.60;;;0.80;99.90;;;;;;5053784;28;20178;-77
2023/01/21 11:45:36;;;;;;;46.47;22.10;;;0.90;99.90;;;;;;5053820;28;20656;-76
2023/01/21 11:48:19;;;;;;;41.77;20.17;;;0.90;99.90;;;;;;5053734;28;20159;-77
2023/01/21 11:50:44;;;;;;;44.67;22.20;;;1.00;99.90;;;;;;5054498;28;20186;-75
2023/01/21 11:53:15;;;;;;;51.30;21.90;;;1.00;99.90;;;;;;5052249;28;20734;-76
2023/01/21 11:55:40;;;;;;;45.83;22.77;;;1.10;99.90;;;;;;5053830;28;20182;-76
2023/01/21 11:58:18;;;;;;;43.77;20.73;;;1.20;99.90;;;;;;5053362;28;20633;-76
2023/01/21 12:00:48;;;;;;;36.87;19.20;;;1.20;99.90;;;;;;5052796;28;20187;-77
2023/01/21 12:03:17;;;;;;;42.60;19.83;;;1.20;99.90;;;;;;5053125;28;20163;-76
2023/01/21 12:05:48;;;;;;;38.97;18.33;;;1.30;99.90;;;;;;5052047;28;20596;-76
2023/01/21 12:08:36;;;;;;;38.83;18.67;;;1.30;99.90;;;;;;5052067;28;20203;-77
2023/01/21 12:11:03;;;;;;;41.03;19.73;;;1.40;99.90;;;;;;5053519;28;20196;-76
2023/01/21 12:14:11;;;;;;;39.23;19.97;;;1.50;99.90;;;;;;5053227;28;20166;-76
2023/01/21 12:16:52;;;;;;;34.33;18.80;;;1.50;99.90;;;;;;5047483;28;20183;-77
2023/01/21 12:19:45;;;;;;;36.73;17.97;;;1.50;99.90;;;;;;5051453;28;20175;-76
2023/01/21 12:22:33;;;;;;;35.93;18.77;;;1.60;99.90;;;;;;5052836;28;20222;-76
2023/01/21 12:25:06;;;;;;;35.30;17.63;;;1.60;99.90;;;;;;5053010;28;20242;-76
2023/01/21 12:28:09;;;;;;;37.27;18.00;;;1.60;99.90;;;;;;5051729;28;20182;-76
2023/01/21 12:30:56;;;;;;;35.73;18.43;;;1.70;99.90;;;;;;5051535;28;20185;-77
2023/01/21 12:33:30;;;;;;;37.53;18.87;;;1.70;99.90;;;;;;5051590;28;20178;-76
2023/01/21 12:36:29;;;;;;;36.43;17.50;;;1.80;99.90;;;;;;5051928;28;20597;-77
2023/01/21 12:39:22;;;;;;;38.67;18.27;;;1.80;99.90;;;;;;5041261;28;20191;-77
2023/01/21 12:41:56;;;;;;;32.70;17.00;;;1.80;99.90;;;;;;5051562;28;20206;-77
2023/01/21 12:44:31;;;;;;;28.70;16.20;;;1.90;99.90;;;;;;5051862;28;20724;-77
2023/01/21 12:47:04;;;;;;;29.77;15.63;;;1.90;99.90;;;;;;5051495;28;20202;-77
2023/01/21 12:49:33;;;;;;;28.40;16.33;;;1.90;99.90;;;;;;5050776;28;20207;-76
2023/01/21 12:52:04;;;;;;;27.67;15.37;;;1.90;99.90;;;;;;5052829;28;20675;-76
2023/01/21 12:54:42;;;;;;;29.93;15.30;;;1.90;99.90;;;;;;5052036;28;20584;-77